Time;durP1;ratioP1;P1;durP2;ratioP2;P2;SDS_P1;SDS_P2;PMS_P1;PMS_P2;Temp;Humidity;BMP_temperature;BMP_pressure;BME280_temperature;BME280_humidity;BME280_pressure;Samples;Min_cycle;Max_cycle;Signal;HPM_P1;HPM_P2
2021/11/25 00:01:50;;;;;;;12.48;4.90;;;22.00;50.30;;;;;;5194268;28;20049;-40
2021/11/25 00:04:23;;;;;;;9.98;4.38;;;22.00;50.30;;;;;;5196417;28;20037;-41
2021/11/25 00:06:55;;;;;;;10.85;5.00;;;22.00;50.20;;;;;;5189336;28;20041;-40
2021/11/25 00:09:28;;;;;;;10.68;4.35;;;22.00;50.20;;;;;;5192824;28;20045;-41
2021/11/25 00:12:00;;;;;;;10.13;4.75;;;22.00;50.00;;;;;;5178558;28;20072;-44
2021/11/25 00:14:35;;;;;;;5.90;4.45;;;22.00;49.90;;;;;;5199808;28;20045;-45
2021/11/25 00:17:08;;;;;;;9.88;4.25;;;22.00;49.90;;;;;;5196422;28;20048;-41
2021/11/25 00:19:41;;;;;;;7.05;4.65;;;22.00;49.90;;;;;;5196796;28;20044;-41
2021/11/25 00:22:13;;;;;;;7.85;4.18;;;22.00;49.80;;;;;;5193762;28;20049;-41
2021/11/25 00:24:46;;;;;;;6.68;4.60;;;22.00;49.70;;;;;;5195193;28;20052;-44
2021/11/25 00:27:19;;;;;;;6.65;4.13;;;21.90;50.20;;;;;;5195466;28;20049;-43
2021/11/25 00:29:52;;;;;;;5.38;4.20;;;22.00;49.70;;;;;;5183757;28;20042;-41
2021/11/25 00:32:24;;;;;;;6.03;4.55;;;22.00;49.60;;;;;;5192405;28;20049;-40
2021/11/25 00:34:57;;;;;;;6.38;4.65;;;22.00;49.50;;;;;;5193223;28;20041;-43
2021/11/25 00:37:29;;;;;;;6.85;4.18;;;22.00;49.70;;;;;;5192450;28;20048;-41
2021/11/25 00:40:02;;;;;;;4.80;4.25;;;22.00;49.60;;;;;;5197843;28;20041;-46
2021/11/25 00:42:35;;;;;;;5.75;4.65;;;21.90;49.40;;;;;;5188806;28;20768;-40
2021/11/25 00:45:09;;;;;;;8.32;4.75;;;21.90;49.30;;;;;;5175085;28;20053;-42
2021/11/25 00:47:42;;;;;;;7.57;5.00;;;21.90;49.40;;;;;;5185186;28;20060;-40
2021/11/25 00:50:17;;;;;;;6.53;4.50;;;21.90;49.30;;;;;;5191775;28;20040;-42
2021/11/25 00:52:50;;;;;;;6.72;5.10;;;21.90;49.40;;;;;;5180860;28;20518;-43
2021/11/25 00:55:22;;;;;;;4.97;4.43;;;21.90;49.40;;;;;;5191104;28;20118;-42
2021/11/25 00:57:55;;;;;;;9.60;4.85;;;21.90;49.50;;;;;;5180480;28;20049;-40
2021/11/25 01:00:27;;;;;;;7.43;4.85;;;21.90;49.50;;;;;;5193084;28;20179;-40
2021/11/25 01:03:00;;;;;;;6.20;4.50;;;21.90;49.40;;;;;;5187569;28;20056;-40
2021/11/25 01:05:33;;;;;;;8.43;5.33;;;21.90;49.50;;;;;;5192474;28;20052;-42
2021/11/25 01:08:05;;;;;;;8.73;4.93;;;21.90;49.30;;;;;;5170859;28;20314;-40
2021/11/25 01:10:38;;;;;;;6.47;4.70;;;21.90;49.30;;;;;;5201902;28;20055;-40
2021/11/25 01:13:11;;;;;;;7.60;4.67;;;21.90;49.50;;;;;;5190823;28;20050;-42
2021/11/25 01:15:43;;;;;;;6.03;4.45;;;21.90;49.50;;;;;;5193199;28;20311;-43
2021/11/25 01:18:17;;;;;;;6.30;4.70;;;21.90;49.50;;;;;;5193343;28;20053;-43
2021/11/25 01:20:51;;;;;;;7.60;5.10;;;21.90;49.40;;;;;;5180570;28;20060;-43
2021/11/25 01:23:26;;;;;;;5.75;4.82;;;21.90;49.30;;;;;;5192077;28;20131;-42
2021/11/25 01:25:59;;;;;;;6.13;4.72;;;21.90;49.40;;;;;;5201119;28;20052;-44
2021/11/25 01:28:32;;;;;;;6.63;4.72;;;21.90;49.30;;;;;;5186151;28;20064;-43
2021/11/25 01:31:04;;;;;;;8.02;5.30;;;21.90;49.40;;;;;;5190213;28;20045;-44
2021/11/25 01:33:37;;;;;;;8.17;5.20;;;21.80;49.20;;;;;;5187243;28;20048;-39
2021/11/25 01:36:09;;;;;;;7.28;5.20;;;21.90;49.10;;;;;;5177103;28;20519;-40
2021/11/25 01:38:42;;;;;;;6.45;4.63;;;21.80;49.10;;;;;;5172384;28;20056;-43
2021/11/25 01:41:16;;;;;;;6.15;5.15;;;21.90;49.20;;;;;;5170757;28;20045;-39
2021/11/25 01:43:49;;;;;;;5.95;4.85;;;21.80;49.10;;;;;;5175429;28;20037;-41
2021/11/25 01:46:22;;;;;;;7.07;4.53;;;21.80;49.10;;;;;;5154221;28;20045;-45
2021/11/25 01:48:55;;;;;;;9.25;4.82;;;21.80;49.00;;;;;;5160712;28;20055;-41
2021/11/25 01:51:28;;;;;;;9.50;5.00;;;21.90;49.20;;;;;;5173677;28;20041;-44
2021/11/25 01:54:00;;;;;;;8.43;5.18;;;21.80;49.10;;;;;;5193811;28;20056;-42
2021/11/25 01:56:33;;;;;;;6.30;4.93;;;21.90;49.10;;;;;;5190801;28;20045;-42
2021/11/25 01:59:05;;;;;;;6.40;4.40;;;21.80;49.00;;;;;;5193688;28;20064;-42
2021/11/25 02:01:38;;;;;;;7.10;4.73;;;21.80;49.00;;;;;;5188773;28;20049;-43
2021/11/25 02:04:11;;;;;;;6.63;4.38;;;21.80;49.00;;;;;;5190442;28;20053;-44
2021/11/25 02:06:44;;;;;;;6.10;4.63;;;21.80;49.00;;;;;;5194312;28;20479;-40
2021/11/25 02:09:16;;;;;;;6.22;4.63;;;21.80;49.00;;;;;;5195739;28;20495;-43
2021/11/25 02:11:49;;;;;;;6.55;4.93;;;21.80;49.00;;;;;;5192510;28;20053;-40
2021/11/25 02:14:22;;;;;;;6.18;4.97;;;21.80;49.00;;;;;;5198300;28;20037;-41
2021/11/25 02:16:54;;;;;;;6.18;4.72;;;21.80;48.90;;;;;;5166382;28;20052;-42
2021/11/25 02:19:27;;;;;;;7.88;4.65;;;21.80;48.90;;;;;;5188727;28;20037;-43
2021/11/25 02:22:00;;;;;;;7.75;5.03;;;21.80;48.90;;;;;;5182045;28;20049;-44
2021/11/25 02:24:33;;;;;;;6.75;4.60;;;21.80;48.90;;;;;;5189632;28;20717;-42
2021/11/25 02:27:05;;;;;;;6.05;4.80;;;21.80;48.80;;;;;;5184453;28;20048;-41
2021/11/25 02:29:40;;;;;;;6.00;4.72;;;21.80;48.80;;;;;;5186317;28;20210;-42
2021/11/25 02:32:13;;;;;;;6.78;4.47;;;21.80;48.70;;;;;;5185831;28;20045;-41
2021/11/25 02:34:45;;;;;;;5.53;5.00;;;21.80;48.70;;;;;;5179659;28;20739;-41
2021/11/25 02:37:18;;;;;;;6.82;4.90;;;21.80;48.70;;;;;;5195943;28;20048;-41
2021/11/25 02:39:51;;;;;;;6.40;4.55;;;21.80;48.60;;;;;;5173848;28;20448;-43
2021/11/25 02:42:24;;;;;;;6.32;4.72;;;21.80;48.60;;;;;;5185602;28;20033;-41
2021/11/25 02:44:56;;;;;;;6.03;4.75;;;21.80;48.60;;;;;;5191083;28;20053;-40
2021/11/25 02:47:28;;;;;;;5.70;4.57;;;21.80;48.70;;;;;;5188248;28;20049;-45
2021/11/25 02:50:01;;;;;;;8.57;4.93;;;21.80;48.70;;;;;;5187273;28;20437;-41
2021/11/25 02:52:38;;;;;;;7.05;5.13;;;21.80;48.70;;;;;;5189011;28;20531;-41
2021/11/25 02:55:11;;;;;;;6.80;5.03;;;21.80;49.30;;;;;;5186598;28;20061;-42
2021/11/25 02:57:44;;;;;;;6.38;4.63;;;21.80;48.70;;;;;;5173875;28;20056;-41
2021/11/25 03:00:19;;;;;;;7.10;4.90;;;21.80;48.50;;;;;;5186524;28;20048;-40
2021/11/25 03:02:58;;;;;;;7.95;4.93;;;21.80;48.60;;;;;;5185581;28;20041;-43
2021/11/25 03:05:31;;;;;;;6.90;4.82;;;21.80;48.50;;;;;;5186518;28;20052;-39
2021/11/25 03:08:06;;;;;;;5.68;4.80;;;21.80;48.50;;;;;;5186897;28;20073;-44
2021/11/25 03:10:44;;;;;;;6.20;4.55;;;21.70;48.50;;;;;;5189459;28;20048;-41
2021/11/25 03:13:20;;;;;;;10.27;5.15;;;21.80;48.50;;;;;;5189026;28;20220;-43
2021/11/25 03:15:53;;;;;;;6.40;4.30;;;21.80;48.60;;;;;;5187648;28;20120;-43
2021/11/25 03:18:28;;;;;;;8.20;4.95;;;21.80;48.60;;;;;;5186062;28;20080;-42
2021/11/25 03:21:01;;;;;;;6.68;4.15;;;21.80;48.50;;;;;;5183780;28;20556;-43
2021/11/25 03:23:37;;;;;;;8.60;4.50;;;21.80;48.50;;;;;;5190148;28;20061;-39
2021/11/25 03:26:12;;;;;;;7.07;4.43;;;21.70;48.40;;;;;;5193398;28;20037;-40
2021/11/25 03:28:45;;;;;;;8.07;4.47;;;21.70;48.40;;;;;;5174406;28;20044;-41
2021/11/25 03:31:25;;;;;;;6.10;4.57;;;21.70;48.40;;;;;;5189532;28;20496;-41
2021/11/25 03:33:59;;;;;;;8.02;4.75;;;21.70;48.40;;;;;;5179955;28;20063;-41
2021/11/25 03:36:32;;;;;;;9.65;4.65;;;21.70;48.40;;;;;;5187879;28;20057;-42
2021/11/25 03:39:05;;;;;;;6.20;4.35;;;21.70;48.40;;;;;;5189836;28;20057;-41
2021/11/25 03:41:37;;;;;;;5.85;4.10;;;21.70;48.50;;;;;;5185405;28;20047;-43
2021/11/25 03:44:10;;;;;;;7.18;4.20;;;21.70;48.30;;;;;;5194069;28;20096;-43
2021/11/25 03:46:42;;;;;;;6.72;4.38;;;21.70;48.30;;;;;;5193898;28;20060;-40
2021/11/25 03:49:14;;;;;;;7.30;4.22;;;21.70;48.30;;;;;;5189709;28;20045;-40
2021/11/25 03:51:47;;;;;;;5.55;4.45;;;21.70;48.40;;;;;;5188270;28;20045;-40
2021/11/25 03:54:19;;;;;;;5.15;4.13;;;21.70;48.30;;;;;;5190239;28;20516;-42
2021/11/25 03:56:51;;;;;;;5.30;4.03;;;21.70;48.30;;;;;;5180989;28;20435;-42
2021/11/25 03:59:24;;;;;;;5.75;4.43;;;21.70;48.30;;;;;;5189495;28;20552;-39
2021/11/25 04:01:56;;;;;;;4.53;3.63;;;21.70;48.20;;;;;;5188244;28;20492;-41
2021/11/25 04:04:29;;;;;;;5.93;3.92;;;21.70;48.30;;;;;;5153708;28;20484;-43
2021/11/25 04:07:02;;;;;;;6.75;4.60;;;21.70;48.20;;;;;;5184298;28;20053;-44
2021/11/25 04:09:35;;;;;;;5.00;3.97;;;21.70;48.30;;;;;;5178256;28;20053;-40
2021/11/25 04:12:08;;;;;;;5.10;3.85;;;21.70;48.40;;;;;;5182780;28;20048;-43
2021/11/25 04:14:41;;;;;;;4.93;4.32;;;21.70;48.50;;;;;;5179495;28;20064;-40
2021/11/25 04:17:17;;;;;;;5.60;4.35;;;21.70;48.50;;;;;;5174565;28;20081;-42
2021/11/25 04:19:51;;;;;;;6.47;3.88;;;21.70;48.60;;;;;;5149541;28;20060;-42
2021/11/25 04:22:24;;;;;;;7.78;3.47;;;21.70;48.70;;;;;;5182690;28;20049;-40
2021/11/25 04:24:57;;;;;;;4.03;3.38;;;21.70;48.90;;;;;;5182358;28;20612;-43
2021/11/25 04:27:30;;;;;;;4.63;3.70;;;21.70;48.80;;;;;;5181335;28;20045;-40
2021/11/25 04:35:35;;;;;;;4.90;3.63;;;21.70;49.10;;;;;;5181256;28;20049;-41
2021/11/25 04:38:12;;;;;;;4.38;3.22;;;21.70;49.10;;;;;;5170274;28;20049;-41
2021/11/25 04:40:50;;;;;;;4.20;3.40;;;21.70;49.20;;;;;;5189266;28;20048;-41
2021/11/25 04:43:24;;;;;;;4.28;3.13;;;21.70;49.20;;;;;;5175999;28;20420;-41
2021/11/25 04:45:58;;;;;;;3.72;3.05;;;21.70;49.30;;;;;;5193045;28;20037;-42
2021/11/25 04:48:31;;;;;;;9.75;4.20;;;21.70;49.30;;;;;;5176955;28;20512;-42
2021/11/25 04:51:03;;;;;;;6.20;3.50;;;21.70;49.40;;;;;;5195426;28;20439;-41
2021/11/25 04:53:37;;;;;;;4.43;2.97;;;21.70;49.50;;;;;;5173735;28;20057;-42
2021/11/25 04:56:09;;;;;;;6.70;3.80;;;21.70;49.60;;;;;;5181136;28;20041;-41
2021/11/25 04:58:42;;;;;;;4.47;3.37;;;21.70;49.60;;;;;;5190977;28;20052;-43
2021/11/25 05:01:14;;;;;;;5.97;3.88;;;21.70;49.70;;;;;;5207496;28;20049;-44
2021/11/25 05:03:47;;;;;;;8.52;3.25;;;21.70;49.70;;;;;;5164856;28;20669;-42
2021/11/25 05:06:19;;;;;;;6.07;3.22;;;21.70;49.70;;;;;;5190604;28;20045;-40
2021/11/25 05:08:52;;;;;;;4.85;3.15;;;21.70;49.80;;;;;;5185662;28;20057;-39
2021/11/25 05:11:24;;;;;;;14.00;3.75;;;21.80;50.00;;;;;;5197630;28;20041;-41
2021/11/25 05:13:57;;;;;;;5.07;3.50;;;21.80;50.00;;;;;;5191810;28;20365;-40
2021/11/25 05:16:29;;;;;;;6.88;3.30;;;21.80;50.00;;;;;;5192702;28;20044;-41
2021/11/25 05:19:02;;;;;;;4.32;3.17;;;21.70;49.90;;;;;;5192225;28;20044;-42
2021/11/25 05:21:34;;;;;;;5.78;3.63;;;21.70;50.00;;;;;;5195773;28;20059;-40
2021/11/25 05:24:07;;;;;;;6.93;3.80;;;21.70;50.00;;;;;;5194780;28;20436;-42
2021/11/25 05:26:39;;;;;;;6.93;3.30;;;21.70;50.10;;;;;;5191691;28;20044;-44
2021/11/25 05:29:12;;;;;;;3.75;3.00;;;21.70;50.10;;;;;;5175023;28;20049;-42
2021/11/25 05:31:44;;;;;;;4.50;2.97;;;21.70;50.10;;;;;;5192540;28;20048;-40
2021/11/25 05:34:19;;;;;;;6.50;3.20;;;21.80;50.20;;;;;;5166237;28;20399;-41
2021/11/25 05:36:51;;;;;;;4.95;2.97;;;21.80;50.20;;;;;;5155971;28;20049;-39
2021/11/25 05:39:24;;;;;;;5.95;3.55;;;21.80;50.10;;;;;;5168315;28;20049;-41
2021/11/25 05:41:56;;;;;;;4.38;2.97;;;21.80;50.20;;;;;;5158771;28;20041;-45
2021/11/25 05:44:28;;;;;;;6.88;3.47;;;21.80;50.10;;;;;;5161291;28;20349;-45
2021/11/25 05:47:02;;;;;;;8.13;3.33;;;21.80;50.10;;;;;;5160748;28;20053;-44
2021/11/25 05:49:34;;;;;;;6.53;3.45;;;21.80;50.10;;;;;;5168450;28;20136;-45
2021/11/25 05:52:07;;;;;;;3.90;3.13;;;21.90;50.20;;;;;;5165075;28;20045;-44
2021/11/25 05:54:40;;;;;;;8.15;3.10;;;21.90;50.20;;;;;;5167332;28;20088;-47
2021/11/25 05:57:13;;;;;;;11.95;3.90;;;21.90;50.30;;;;;;5171471;28;20049;-45
2021/11/25 05:59:45;;;;;;;10.48;3.03;;;21.90;50.20;;;;;;5158820;28;20057;-44
2021/11/25 06:02:20;;;;;;;7.78;3.35;;;21.90;50.30;;;;;;5184905;28;20040;-47
2021/11/25 06:04:52;;;;;;;11.13;3.38;;;22.00;50.40;;;;;;5163476;28;20042;-45
2021/11/25 06:07:25;;;;;;;20.70;3.60;;;22.00;50.40;;;;;;5174510;28;20053;-44
2021/11/25 06:09:57;;;;;;;19.63;3.40;;;22.10;50.50;;;;;;5193994;28;20040;-44
2021/11/25 06:12:30;;;;;;;13.43;3.00;;;22.10;50.50;;;;;;5195660;28;20045;-44
2021/11/25 06:15:03;;;;;;;11.00;3.33;;;22.10;50.40;;;;;;5191394;28;20718;-44
2021/11/25 06:17:36;;;;;;;8.77;3.30;;;22.10;50.40;;;;;;5183219;28;20055;-45
2021/11/25 06:20:13;;;;;;;8.60;3.20;;;22.10;50.30;;;;;;5182738;28;20049;-45
2021/11/25 06:22:49;;;;;;;10.73;3.45;;;22.10;50.30;;;;;;5191510;28;20052;-45
2021/11/25 06:25:23;;;;;;;7.50;3.22;;;22.10;50.30;;;;;;5182963;28;20168;-49
2021/11/25 06:27:56;;;;;;;9.80;3.13;;;22.10;50.30;;;;;;5187064;28;20068;-44
2021/11/25 06:30:28;;;;;;;8.10;2.80;;;22.10;50.30;;;;;;5169987;28;20033;-43
2021/11/25 06:33:01;;;;;;;4.95;3.05;;;22.10;50.30;;;;;;5191506;28;20044;-45
2021/11/25 06:35:34;;;;;;;9.93;3.70;;;22.10;50.20;;;;;;5176486;28;20056;-46
2021/11/25 06:38:07;;;;;;;9.87;3.30;;;22.10;50.80;;;;;;5203344;28;20049;-45
2021/11/25 06:40:39;;;;;;;5.80;3.30;;;22.10;50.00;;;;;;5174239;28;20049;-43
2021/11/25 06:43:12;;;;;;;9.82;3.63;;;22.10;50.00;;;;;;5201638;28;20456;-44
2021/11/25 06:45:45;;;;;;;8.02;3.60;;;22.10;49.90;;;;;;5194949;28;20518;-45
2021/11/25 06:48:17;;;;;;;5.95;3.38;;;22.20;50.00;;;;;;5192879;28;20603;-44
2021/11/25 06:50:50;;;;;;;7.13;4.05;;;22.10;49.90;;;;;;5208186;28;20048;-43
2021/11/25 06:53:22;;;;;;;11.80;3.70;;;22.20;49.90;;;;;;5204232;28;20048;-43
2021/11/25 06:55:56;;;;;;;6.60;3.55;;;22.10;49.80;;;;;;5203594;28;20408;-46
2021/11/25 06:58:28;;;;;;;7.97;4.15;;;22.10;49.60;;;;;;5215391;28;20539;-44
2021/11/25 07:01:06;;;;;;;15.27;5.82;;;22.10;49.50;;;;;;5196496;28;20055;-47
2021/11/25 07:03:39;;;;;;;10.05;7.10;;;22.10;48.00;;;;;;5183966;28;20061;-45
2021/11/25 07:06:12;;;;;;;10.43;7.50;;;22.10;46.60;;;;;;5200798;28;20049;-45
2021/11/25 07:08:44;;;;;;;10.07;7.13;;;22.00;46.00;;;;;;5198671;28;20053;-44
2021/11/25 07:11:17;;;;;;;12.75;7.32;;;22.00;45.80;;;;;;5196280;28;20049;-44
2021/11/25 07:13:49;;;;;;;8.30;6.70;;;21.90;45.20;;;;;;5203554;28;20052;-46
2021/11/25 07:16:22;;;;;;;8.40;7.13;;;21.90;45.20;;;;;;5204843;28;20049;-46
2021/11/25 07:18:55;;;;;;;9.27;6.82;;;21.90;44.90;;;;;;5202289;28;20060;-47
2021/11/25 07:21:28;;;;;;;9.57;7.20;;;21.80;44.80;;;;;;5200161;28;20048;-47
2021/11/25 07:24:00;;;;;;;8.73;6.07;;;21.80;44.60;;;;;;5204930;28;20040;-46
2021/11/25 07:26:33;;;;;;;8.43;6.20;;;21.80;44.40;;;;;;5206929;28;20052;-45
2021/11/25 07:29:05;;;;;;;8.53;6.50;;;21.80;43.90;;;;;;5212181;23;20056;-73
2021/11/25 07:31:38;;;;;;;8.07;6.15;;;21.80;43.60;;;;;;5207410;28;20351;-72
2021/11/25 07:34:10;;;;;;;8.10;6.25;;;21.80;43.40;;;;;;5226118;28;20045;-72
2021/11/25 07:36:42;;;;;;;8.95;6.70;;;21.70;43.20;;;;;;5225943;28;20048;-72
2021/11/25 07:39:15;;;;;;;9.38;6.95;;;21.70;43.00;;;;;;5228506;28;20215;-72
2021/11/25 07:41:47;;;;;;;8.38;6.75;;;21.70;42.90;;;;;;5227221;28;20049;-72
2021/11/25 07:44:20;;;;;;;7.47;5.85;;;21.60;42.80;;;;;;5208845;28;20052;-73
2021/11/25 07:46:53;;;;;;;7.88;6.40;;;21.60;42.90;;;;;;5229021;28;20049;-72
2021/11/25 07:49:26;;;;;;;8.13;6.20;;;21.60;42.80;;;;;;5228870;28;20045;-72
2021/11/25 07:52:00;;;;;;;8.18;6.20;;;21.60;43.00;;;;;;5227610;28;20483;-72
2021/11/25 07:54:33;;;;;;;8.05;6.30;;;21.50;42.60;;;;;;5224127;28;20046;-73
2021/11/25 07:57:07;;;;;;;7.32;6.40;;;21.60;42.50;;;;;;5226703;28;20059;-72
2021/11/25 07:59:40;;;;;;;8.65;6.70;;;21.50;42.30;;;;;;5227103;28;20052;-72
2021/11/25 08:02:12;;;;;;;8.15;6.40;;;21.50;42.10;;;;;;5225723;28;20326;-71
2021/11/25 08:04:49;;;;;;;8.25;6.20;;;21.50;42.20;;;;;;5225729;28;20032;-73
2021/11/25 08:07:21;;;;;;;7.20;6.07;;;21.50;42.40;;;;;;5225430;28;20419;-73
2021/11/25 08:09:54;;;;;;;7.45;5.80;;;21.50;42.50;;;;;;5226131;28;20041;-74
2021/11/25 08:12:31;;;;;;;8.38;6.45;;;21.50;42.40;;;;;;5226983;28;20063;-73
2021/11/25 08:15:05;;;;;;;10.13;6.53;;;21.40;42.10;;;;;;5225809;28;20507;-72
2021/11/25 08:17:38;;;;;;;7.75;6.43;;;21.40;41.90;;;;;;5228342;28;20056;-73
2021/11/25 08:20:11;;;;;;;9.03;7.27;;;21.40;42.20;;;;;;5225908;28;20037;-72
2021/11/25 08:22:44;;;;;;;;;;;21.40;42.20;;;;;;5223450;28;20808;-72
2021/11/25 08:25:17;;;;;;;6.82;6.13;;;21.30;41.70;;;;;;5217183;28;19944;-73
2021/11/25 08:27:52;;;;;;;;;;;21.30;42.10;;;;;;5232802;28;20041;-73
2021/11/25 08:30:26;;;;;;;7.85;6.45;;;21.30;41.80;;;;;;5215741;28;19932;-73
2021/11/25 08:32:58;;;;;;;7.35;6.10;;;21.30;42.20;;;;;;5223372;28;20072;-73
2021/11/25 08:35:31;;;;;;;7.72;6.03;;;21.30;42.20;;;;;;5210383;28;20061;-74
2021/11/25 08:38:03;;;;;;;8.80;6.80;;;21.30;42.20;;;;;;5230520;28;20049;-72
2021/11/25 08:40:36;;;;;;;8.27;6.20;;;21.30;42.10;;;;;;5222236;28;20045;-72
2021/11/25 08:43:08;;;;;;;7.88;5.90;;;21.30;42.00;;;;;;5227150;28;20041;-72
2021/11/25 08:45:40;;;;;;;8.50;6.68;;;21.30;42.00;;;;;;5226859;28;20044;-72
2021/11/25 08:48:13;;;;;;;10.98;7.28;;;21.30;42.00;;;;;;5226629;28;20303;-74
2021/11/25 08:50:46;;;;;;;7.43;6.00;;;21.30;41.90;;;;;;5227705;28;20059;-73
2021/11/25 08:53:22;;;;;;;8.10;6.50;;;21.30;41.90;;;;;;5212834;28;20044;-73
2021/11/25 08:55:55;;;;;;;7.65;6.18;;;21.30;41.80;;;;;;5225245;28;20044;-73
2021/11/25 08:58:28;;;;;;;7.88;6.32;;;21.30;41.90;;;;;;5229849;28;20236;-73
2021/11/25 09:01:00;;;;;;;6.97;5.53;;;21.30;41.90;;;;;;5228442;28;20052;-73
2021/11/25 09:03:33;;;;;;;7.93;6.23;;;21.20;41.90;;;;;;5224132;28;20052;-73
2021/11/25 09:06:05;;;;;;;7.13;5.70;;;21.20;41.80;;;;;;5227357;28;20045;-73
2021/11/25 09:08:38;;;;;;;9.65;5.65;;;21.20;42.40;;;;;;5228145;28;20258;-73
2021/11/25 09:11:10;;;;;;;7.68;6.00;;;21.20;41.80;;;;;;5223714;28;20049;-73
2021/11/25 09:13:43;;;;;;;9.20;6.32;;;21.20;41.80;;;;;;5219845;28;20056;-73
2021/11/25 09:16:17;;;;;;;8.25;5.93;;;21.20;41.80;;;;;;5207814;28;20057;-76
2021/11/25 09:18:50;;;;;;;7.13;5.40;;;21.20;41.60;;;;;;5217156;28;20049;-75
2021/11/25 09:21:23;;;;;;;6.65;4.90;;;21.20;42.40;;;;;;5225862;28;20814;-76
2021/11/25 09:23:58;;;;;;;14.32;11.13;;;21.30;42.40;;;;;;5200447;28;20045;-76
2021/11/25 09:26:31;;;;;;;7.57;6.10;;;21.10;38.30;;;;;;5221807;28;20044;-71
2021/11/25 09:29:10;;;;;;;9.32;5.97;;;20.90;40.90;;;;;;5210120;28;20493;-70
2021/11/25 09:31:43;;;;;;;6.55;5.15;;;20.90;41.70;;;;;;5209412;28;20049;-70
2021/11/25 09:34:16;;;;;;;5.15;4.18;;;20.90;42.30;;;;;;5227276;28;20048;-70
2021/11/25 09:36:48;;;;;;;5.47;4.30;;;21.00;42.70;;;;;;5226088;28;20072;-70
2021/11/25 09:39:25;;;;;;;7.50;4.57;;;21.10;42.90;;;;;;5227026;28;20052;-70
2021/11/25 09:41:58;;;;;;;5.40;4.18;;;21.10;43.10;;;;;;5226653;28;20049;-71
2021/11/25 09:44:30;;;;;;;6.35;3.97;;;21.20;43.30;;;;;;5227068;28;20485;-69
2021/11/25 09:47:04;;;;;;;5.50;3.60;;;21.20;43.50;;;;;;5226960;28;20519;-71
2021/11/25 09:49:36;;;;;;;4.68;3.53;;;21.20;43.60;;;;;;5226595;28;20045;-71
2021/11/25 09:52:09;;;;;;;5.68;3.70;;;21.30;43.70;;;;;;5225876;28;20372;-71
2021/11/25 09:54:42;;;;;;;4.80;3.60;;;21.30;43.80;;;;;;5226123;28;20060;-71
2021/11/25 09:57:14;;;;;;;6.82;3.50;;;21.30;43.90;;;;;;5226706;28;20045;-71
2021/11/25 09:59:47;;;;;;;4.70;3.50;;;21.40;44.10;;;;;;5218402;28;20420;-71
2021/11/25 10:02:19;;;;;;;6.50;3.83;;;21.40;44.20;;;;;;5225972;28;20291;-71
2021/11/25 10:04:52;;;;;;;4.27;3.20;;;21.40;44.30;;;;;;5208545;28;20056;-71
2021/11/25 10:07:29;;;;;;;4.25;3.25;;;21.40;44.40;;;;;;5207872;28;20045;-71
2021/11/25 10:10:26;;;;;;;3.88;3.17;;;21.50;44.60;;;;;;5226443;28;20224;-71
2021/11/25 10:13:13;;;;;;;6.07;2.97;;;21.50;44.60;;;;;;5226381;28;20037;-71
2021/11/25 10:15:47;;;;;;;3.53;2.85;;;21.50;44.60;;;;;;5226603;28;20052;-71
2021/11/25 10:18:19;;;;;;;4.50;3.00;;;21.50;44.70;;;;;;5226106;28;20049;-71
2021/11/25 10:20:52;;;;;;;4.05;2.90;;;21.60;44.80;;;;;;5208362;28;20436;-71
2021/11/25 10:23:29;;;;;;;4.77;3.30;;;21.50;44.80;;;;;;5226611;28;20045;-71
2021/11/25 10:26:03;;;;;;;4.43;3.17;;;21.60;44.90;;;;;;5226161;28;20280;-71
2021/11/25 10:28:38;;;;;;;3.85;3.25;;;21.60;44.90;;;;;;5225895;28;20412;-71
2021/11/25 10:31:13;;;;;;;4.10;2.95;;;21.60;45.00;;;;;;5226454;28;20045;-72
2021/11/25 10:34:04;;;;;;;6.15;2.80;;;21.60;45.10;;;;;;5226194;28;20049;-71
2021/11/25 10:42:35;;;;;;;4.85;3.00;;;21.70;45.20;;;;;;5225847;28;20045;-71
2021/11/25 10:45:14;;;;;;;4.18;3.15;;;21.70;45.30;;;;;;5224515;28;20055;-71
2021/11/25 10:48:02;;;;;;;3.70;2.60;;;21.70;45.40;;;;;;5226127;28;20400;-71
2021/11/25 10:50:35;;;;;;;2.60;2.25;;;21.70;45.40;;;;;;5224881;28;20523;-71
2021/11/25 10:53:09;;;;;;;3.50;2.78;;;21.80;45.50;;;;;;5225491;28;20055;-70
2021/11/25 10:55:43;;;;;;;4.20;2.90;;;21.80;45.50;;;;;;5224644;28;20057;-70
2021/11/25 10:58:16;;;;;;;3.13;2.67;;;21.70;45.60;;;;;;5225451;28;20053;-70
2021/11/25 11:00:49;;;;;;;;;;;21.80;45.70;;;;;;5224297;28;20389;-70
2021/11/25 11:03:27;;;;;;;4.68;3.30;;;21.80;45.70;;;;;;5225706;28;20277;-71
2021/11/25 11:06:03;;;;;;;5.80;3.15;;;21.80;45.70;;;;;;5225367;28;20048;-71
2021/11/25 11:08:43;;;;;;;8.25;2.72;;;21.80;45.80;;;;;;5225354;28;20044;-70
2021/11/25 11:11:19;;;;;;;7.22;2.83;;;21.80;45.80;;;;;;5225112;28;20492;-70
2021/11/25 11:14:29;;;;;;;4.88;2.67;;;21.80;45.80;;;;;;5225209;28;20485;-71
2021/11/25 11:17:25;;;;;;;6.43;2.63;;;21.80;45.90;;;;;;5224865;28;20056;-70
2021/11/25 11:20:18;;;;;;;3.45;2.53;;;21.80;45.90;;;;;;5224983;28;20045;-71
2021/11/25 11:22:56;;;;;;;5.13;2.77;;;21.90;46.00;;;;;;5223676;28;20049;-70
2021/11/25 11:25:33;;;;;;;3.20;2.38;;;21.80;46.00;;;;;;5223245;28;20288;-70
2021/11/25 11:28:07;;;;;;;4.70;2.72;;;21.90;46.10;;;;;;5221597;28;20052;-71
2021/11/25 11:30:40;;;;;;;4.78;2.95;;;21.90;46.10;;;;;;5220653;28;20040;-70
2021/11/25 11:33:14;;;;;;;5.32;2.50;;;21.90;46.10;;;;;;5224721;28;20409;-70
2021/11/25 11:35:47;;;;;;;7.05;2.67;;;21.90;46.20;;;;;;5225278;28;20485;-70
2021/11/25 11:38:19;;;;;;;7.05;2.80;;;21.90;46.20;;;;;;5224649;28;20508;-71
2021/11/25 11:40:52;;;;;;;4.28;2.55;;;21.90;46.20;;;;;;5223765;28;20404;-71
2021/11/25 11:43:25;;;;;;;2.97;2.65;;;21.90;46.30;;;;;;5224491;28;20048;-70
2021/11/25 11:45:58;;;;;;;3.30;2.20;;;21.90;46.30;;;;;;5224460;28;20134;-70
2021/11/25 11:48:31;;;;;;;4.40;2.65;;;21.90;46.30;;;;;;5224414;28;20041;-70
2021/11/25 11:51:15;;;;;;;6.97;3.67;;;21.90;46.40;;;;;;5224435;28;20041;-70
2021/11/25 11:53:54;;;;;;;5.13;2.53;;;21.90;46.50;;;;;;5224229;28;20501;-71
2021/11/25 11:56:42;;;;;;;4.22;2.70;;;22.00;46.50;;;;;;5224410;28;20424;-71
2021/11/25 11:59:15;;;;;;;4.00;2.50;;;21.90;46.50;;;;;;5224436;28;20308;-71
2021/11/25 12:01:52;;;;;;;4.85;2.75;;;21.90;46.50;;;;;;5224121;28;20317;-70
2021/11/25 12:04:25;;;;;;;3.53;2.88;;;22.00;46.50;;;;;;5224000;28;20285;-71
2021/11/25 12:06:58;;;;;;;5.07;2.78;;;22.00;46.50;;;;;;5224174;28;20048;-71
2021/11/25 12:09:32;;;;;;;3.33;2.80;;;22.00;46.60;;;;;;5221398;28;20416;-71
2021/11/25 12:12:14;;;;;;;4.85;2.60;;;22.00;46.60;;;;;;5206595;28;20053;-70
2021/11/25 12:14:50;;;;;;;3.65;2.63;;;22.00;46.60;;;;;;5223870;28;20057;-70
2021/11/25 12:17:42;;;;;;;3.95;2.75;;;22.00;46.70;;;;;;5224403;28;20060;-71
2021/11/25 12:20:26;;;;;;;3.22;2.72;;;22.00;46.70;;;;;;5223755;28;20382;-71
2021/11/25 12:22:59;;;;;;;2.80;2.50;;;22.00;46.80;;;;;;5223912;28;20041;-70
2021/11/25 12:25:39;;;;;;;4.50;3.10;;;22.00;46.80;;;;;;5223949;28;20053;-70
2021/11/25 12:28:26;;;;;;;6.18;2.85;;;22.00;46.80;;;;;;5189564;28;20139;-71
2021/11/25 12:31:34;;;;;;;5.75;2.60;;;22.00;46.80;;;;;;5223598;28;20045;-71
2021/11/25 12:34:32;;;;;;;4.75;2.63;;;22.00;46.80;;;;;;5223718;28;20511;-71
2021/11/25 12:37:04;;;;;;;6.18;2.83;;;22.00;46.90;;;;;;5230688;23;20275;-51
2021/11/25 12:39:39;;;;;;;3.88;3.20;;;22.00;46.90;;;;;;5178538;28;20057;-53
2021/11/25 12:42:11;;;;;;;3.58;2.90;;;22.00;47.00;;;;;;5184837;28;20500;-50
2021/11/25 12:44:44;;;;;;;4.73;3.33;;;22.00;47.00;;;;;;5170583;28;20655;-51
2021/11/25 12:47:18;;;;;;;6.10;2.95;;;22.00;47.10;;;;;;5166384;28;20508;-53
2021/11/25 12:50:10;;;;;;;9.95;2.80;;;22.00;47.20;;;;;;5167294;28;20511;-55
2021/11/25 12:52:43;;;;;;;5.72;3.30;;;22.00;47.20;;;;;;5162479;28;20144;-54
2021/11/25 12:55:16;;;;;;;7.15;3.10;;;22.00;47.20;;;;;;5175898;28;20045;-54
2021/11/25 12:57:56;;;;;;;7.45;2.78;;;22.00;47.20;;;;;;5163444;28;20570;-54
2021/11/25 13:00:31;;;;;;;5.82;3.00;;;22.00;47.30;;;;;;5173714;28;20410;-53
2021/11/25 13:03:14;;;;;;;5.18;3.25;;;22.00;47.30;;;;;;5179571;28;20048;-55
2021/11/25 13:05:49;;;;;;;10.20;2.93;;;22.10;47.40;;;;;;5171820;28;20501;-55
2021/11/25 13:08:22;;;;;;;4.15;2.97;;;22.00;47.40;;;;;;5177297;28;20305;-51
2021/11/25 13:10:55;;;;;;;7.55;3.67;;;22.10;47.50;;;;;;5186937;28;20048;-50
2021/11/25 13:13:30;;;;;;;6.10;2.87;;;22.10;47.40;;;;;;5146242;28;25958;-53
2021/11/25 13:16:06;;;;;;;11.02;2.97;;;22.10;47.50;;;;;;5176367;28;20499;-50
2021/11/25 13:18:57;;;;;;;9.05;3.45;;;22.10;47.50;;;;;;5191117;28;20056;-53
2021/11/25 13:21:39;;;;;;;10.98;3.58;;;22.10;47.50;;;;;;5142522;28;20076;-53
2021/11/25 13:24:28;;;;;;;6.05;3.20;;;22.10;47.50;;;;;;5152638;28;20623;-51
2021/11/25 13:27:06;;;;;;;8.32;3.20;;;22.10;47.50;;;;;;5180092;28;20838;-53
2021/11/25 13:29:55;;;;;;;12.00;3.47;;;22.10;47.60;;;;;;5197180;28;20056;-49
2021/11/25 13:32:33;;;;;;;9.80;3.13;;;22.10;47.70;;;;;;5206339;28;20053;-52
2021/11/25 13:35:09;;;;;;;9.18;3.30;;;22.10;47.80;;;;;;5198896;28;20049;-53